sensor_id;sensor_type;location;lat;lon;timestamp;P1;durP1;ratioP1;P2;durP2;ratioP2
63217;SDS011;49314;48.278;16.378;2023-02-28T00:01:00;37.97;;;35.13;;
63217;SDS011;49314;48.278;16.378;2023-02-28T00:03:25;41.42;;;37.60;;
63217;SDS011;49314;48.278;16.378;2023-02-28T00:05:50;37.97;;;34.83;;
63217;SDS011;49314;48.278;16.378;2023-02-28T00:08:15;36.95;;;34.20;;
63217;SDS011;49314;48.278;16.378;2023-02-28T00:10:41;40.40;;;36.80;;
63217;SDS011;49314;48.278;16.378;2023-02-28T00:13:06;36.85;;;34.05;;
63217;SDS011;49314;48.278;16.378;2023-02-28T00:15:32;38.38;;;35.38;;
63217;SDS011;49314;48.278;16.378;2023-02-28T00:17:57;47.17;;;42.47;;
63217;SDS011;49314;48.278;16.378;2023-02-28T00:20:23;36.47;;;32.95;;
63217;SDS011;49314;48.278;16.378;2023-02-28T00:22:49;33.83;;;31.38;;
63217;SDS011;49314;48.278;16.378;2023-02-28T00:25:16;31.30;;;29.50;;
63217;SDS011;49314;48.278;16.378;2023-02-28T00:27:42;32.72;;;30.75;;
63217;SDS011;49314;48.278;16.378;2023-02-28T00:30:09;33.38;;;31.15;;
63217;SDS011;49314;48.278;16.378;2023-02-28T00:32:35;33.65;;;31.65;;
63217;SDS011;49314;48.278;16.378;2023-02-28T00:35:00;33.28;;;31.38;;
63217;SDS011;49314;48.278;16.378;2023-02-28T00:37:26;32.05;;;30.20;;
63217;SDS011;49314;48.278;16.378;2023-02-28T00:39:51;29.85;;;27.92;;
63217;SDS011;49314;48.278;16.378;2023-02-28T00:42:16;32.70;;;30.50;;
63217;SDS011;49314;48.278;16.378;2023-02-28T00:44:42;31.20;;;29.23;;
63217;SDS011;49314;48.278;16.378;2023-02-28T00:47:07;30.55;;;28.75;;
63217;SDS011;49314;48.278;16.378;2023-02-28T00:49:32;32.33;;;30.20;;
63217;SDS011;49314;48.278;16.378;2023-02-28T00:51:57;30.58;;;28.75;;
63217;SDS011;49314;48.278;16.378;2023-02-28T00:54:23;31.08;;;29.38;;
63217;SDS011;49314;48.278;16.378;2023-02-28T00:56:48;32.33;;;30.33;;
63217;SDS011;49314;48.278;16.378;2023-02-28T00:59:14;33.35;;;31.27;;
63217;SDS011;49314;48.278;16.378;2023-02-28T01:01:40;31.50;;;29.60;;
63217;SDS011;49314;48.278;16.378;2023-02-28T01:04:05;33.40;;;31.27;;
63217;SDS011;49314;48.278;16.378;2023-02-28T01:06:31;33.63;;;31.65;;
63217;SDS011;49314;48.278;16.378;2023-02-28T01:08:56;29.90;;;28.13;;
63217;SDS011;49314;48.278;16.378;2023-02-28T01:11:22;32.53;;;30.67;;
63217;SDS011;49314;48.278;16.378;2023-02-28T01:13:47;31.55;;;29.35;;
63217;SDS011;49314;48.278;16.378;2023-02-28T01:16:13;32.03;;;30.13;;
63217;SDS011;49314;48.278;16.378;2023-02-28T01:18:39;32.42;;;30.63;;
63217;SDS011;49314;48.278;16.378;2023-02-28T01:21:09;19.98;;;18.48;;
63217;SDS011;49314;48.278;16.378;2023-02-28T01:23:35;31.65;;;29.75;;
63217;SDS011;49314;48.278;16.378;2023-02-28T01:26:19;31.90;;;30.10;;
63217;SDS011;49314;48.278;16.378;2023-02-28T01:28:45;31.85;;;30.02;;
63217;SDS011;49314;48.278;16.378;2023-02-28T01:31:11;31.80;;;29.60;;
63217;SDS011;49314;48.278;16.378;2023-02-28T01:33:36;23.60;;;21.83;;
63217;SDS011;49314;48.278;16.378;2023-02-28T01:36:03;31.55;;;29.65;;
63217;SDS011;49314;48.278;16.378;2023-02-28T01:38:29;33.53;;;31.42;;
63217;SDS011;49314;48.278;16.378;2023-02-28T01:40:54;32.35;;;30.45;;
63217;SDS011;49314;48.278;16.378;2023-02-28T01:43:27;29.50;;;27.65;;
63217;SDS011;49314;48.278;16.378;2023-02-28T01:45:53;31.73;;;30.02;;
63217;SDS011;49314;48.278;16.378;2023-02-28T01:48:19;29.40;;;27.60;;
63217;SDS011;49314;48.278;16.378;2023-02-28T01:50:46;34.40;;;32.30;;
63217;SDS011;49314;48.278;16.378;2023-02-28T01:53:13;32.70;;;30.60;;
63217;SDS011;49314;48.278;16.378;2023-02-28T01:55:39;29.33;;;27.38;;
63217;SDS011;49314;48.278;16.378;2023-02-28T01:58:06;33.28;;;31.20;;
63217;SDS011;49314;48.278;16.378;2023-02-28T02:00:32;32.97;;;30.95;;
63217;SDS011;49314;48.278;16.378;2023-02-28T02:02:58;32.63;;;30.75;;
63217;SDS011;49314;48.278;16.378;2023-02-28T02:05:25;32.22;;;30.23;;
63217;SDS011;49314;48.278;16.378;2023-02-28T02:07:54;31.90;;;29.98;;
63217;SDS011;49314;48.278;16.378;2023-02-28T02:11:02;32.30;;;30.40;;
63217;SDS011;49314;48.278;16.378;2023-02-28T02:14:11;32.70;;;30.58;;
63217;SDS011;49314;48.278;16.378;2023-02-28T02:26:16;26.60;;;24.90;;
63217;SDS011;49314;48.278;16.378;2023-02-28T02:36:27;35.78;;;33.35;;
63217;SDS011;49314;48.278;16.378;2023-02-28T02:38:58;35.10;;;32.90;;
63217;SDS011;49314;48.278;16.378;2023-02-28T02:44:11;35.67;;;33.67;;
63217;SDS011;49314;48.278;16.378;2023-02-28T02:46:38;34.55;;;32.45;;
63217;SDS011;49314;48.278;16.378;2023-02-28T02:49:06;33.78;;;31.75;;
63217;SDS011;49314;48.278;16.378;2023-02-28T02:51:33;35.72;;;33.35;;
63217;SDS011;49314;48.278;16.378;2023-02-28T02:54:07;32.85;;;30.85;;
63217;SDS011;49314;48.278;16.378;2023-02-28T02:56:33;35.55;;;33.25;;
63217;SDS011;49314;48.278;16.378;2023-02-28T02:59:01;34.90;;;32.67;;
63217;SDS011;49314;48.278;16.378;2023-02-28T03:01:27;31.73;;;29.42;;
63217;SDS011;49314;48.278;16.378;2023-02-28T03:03:57;36.85;;;34.38;;
63217;SDS011;49314;48.278;16.378;2023-02-28T03:06:23;35.35;;;32.72;;
63217;SDS011;49314;48.278;16.378;2023-02-28T03:08:48;36.78;;;34.17;;
63217;SDS011;49314;48.278;16.378;2023-02-28T03:11:14;35.72;;;33.22;;
63217;SDS011;49314;48.278;16.378;2023-02-28T03:18:54;35.55;;;33.08;;
63217;SDS011;49314;48.278;16.378;2023-02-28T03:21:26;33.90;;;31.55;;
63217;SDS011;49314;48.278;16.378;2023-02-28T03:26:22;36.08;;;33.58;;
63217;SDS011;49314;48.278;16.378;2023-02-28T03:33:43;37.45;;;34.92;;
63217;SDS011;49314;48.278;16.378;2023-02-28T03:36:10;36.40;;;33.72;;
63217;SDS011;49314;48.278;16.378;2023-02-28T03:38:41;35.63;;;33.42;;
63217;SDS011;49314;48.278;16.378;2023-02-28T03:41:12;38.05;;;35.60;;
63217;SDS011;49314;48.278;16.378;2023-02-28T03:43:39;35.83;;;33.65;;
63217;SDS011;49314;48.278;16.378;2023-02-28T03:46:08;34.13;;;32.03;;
63217;SDS011;49314;48.278;16.378;2023-02-28T03:48:36;33.78;;;31.58;;
63217;SDS011;49314;48.278;16.378;2023-02-28T03:51:03;35.85;;;33.40;;
63217;SDS011;49314;48.278;16.378;2023-02-28T03:53:35;36.08;;;33.75;;
63217;SDS011;49314;48.278;16.378;2023-02-28T03:56:03;34.78;;;32.53;;
63217;SDS011;49314;48.278;16.378;2023-02-28T03:58:51;37.42;;;34.88;;
63217;SDS011;49314;48.278;16.378;2023-02-28T04:03:55;35.97;;;33.45;;
63217;SDS011;49314;48.278;16.378;2023-02-28T04:06:21;36.63;;;34.25;;
63217;SDS011;49314;48.278;16.378;2023-02-28T04:08:47;36.88;;;34.40;;
63217;SDS011;49314;48.278;16.378;2023-02-28T04:11:16;35.72;;;33.00;;
63217;SDS011;49314;48.278;16.378;2023-02-28T04:13:43;36.28;;;33.85;;
63217;SDS011;49314;48.278;16.378;2023-02-28T04:16:09;35.58;;;33.17;;
63217;SDS011;49314;48.278;16.378;2023-02-28T04:18:37;34.92;;;32.85;;
63217;SDS011;49314;48.278;16.378;2023-02-28T04:21:02;32.67;;;30.58;;
63217;SDS011;49314;48.278;16.378;2023-02-28T04:23:27;37.00;;;34.30;;
63217;SDS011;49314;48.278;16.378;2023-02-28T04:25:54;34.70;;;32.50;;
63217;SDS011;49314;48.278;16.378;2023-02-28T04:28:19;38.20;;;35.72;;
63217;SDS011;49314;48.278;16.378;2023-02-28T04:30:45;33.92;;;31.75;;
63217;SDS011;49314;48.278;16.378;2023-02-28T04:33:10;35.53;;;33.05;;
63217;SDS011;49314;48.278;16.378;2023-02-28T04:35:35;34.35;;;32.22;;
63217;SDS011;49314;48.278;16.378;2023-02-28T04:38:00;33.15;;;30.80;;
63217;SDS011;49314;48.278;16.378;2023-02-28T04:40:25;35.42;;;32.95;;
63217;SDS011;49314;48.278;16.378;2023-02-28T04:42:51;35.70;;;33.28;;
63217;SDS011;49314;48.278;16.378;2023-02-28T04:45:16;36.88;;;34.38;;
63217;SDS011;49314;48.278;16.378;2023-02-28T04:47:42;35.50;;;33.20;;
63217;SDS011;49314;48.278;16.378;2023-02-28T04:50:07;33.45;;;31.10;;
63217;SDS011;49314;48.278;16.378;2023-02-28T04:52:33;34.13;;;31.92;;
63217;SDS011;49314;48.278;16.378;2023-02-28T04:54:58;32.00;;;29.75;;
63217;SDS011;49314;48.278;16.378;2023-02-28T04:57:24;35.42;;;33.15;;
63217;SDS011;49314;48.278;16.378;2023-02-28T04:59:49;37.38;;;34.75;;
63217;SDS011;49314;48.278;16.378;2023-02-28T05:02:14;35.25;;;32.95;;
63217;SDS011;49314;48.278;16.378;2023-02-28T05:04:39;35.53;;;33.15;;
63217;SDS011;49314;48.278;16.378;2023-02-28T05:07:05;35.10;;;32.90;;
63217;SDS011;49314;48.278;16.378;2023-02-28T05:09:30;34.97;;;32.58;;
63217;SDS011;49314;48.278;16.378;2023-02-28T05:11:55;33.85;;;31.65;;
63217;SDS011;49314;48.278;16.378;2023-02-28T05:14:21;35.35;;;33.25;;
63217;SDS011;49314;48.278;16.378;2023-02-28T05:16:46;36.67;;;34.35;;
63217;SDS011;49314;48.278;16.378;2023-02-28T05:19:12;36.42;;;33.90;;
63217;SDS011;49314;48.278;16.378;2023-02-28T05:21:41;37.10;;;34.80;;
63217;SDS011;49314;48.278;16.378;2023-02-28T05:24:07;37.20;;;34.50;;
63217;SDS011;49314;48.278;16.378;2023-02-28T05:26:35;35.75;;;33.50;;
63217;SDS011;49314;48.278;16.378;2023-02-28T05:29:01;35.50;;;33.15;;
63217;SDS011;49314;48.278;16.378;2023-02-28T05:31:26;36.22;;;33.83;;
63217;SDS011;49314;48.278;16.378;2023-02-28T05:33:52;37.20;;;34.58;;
63217;SDS011;49314;48.278;16.378;2023-02-28T05:36:17;34.72;;;32.53;;
63217;SDS011;49314;48.278;16.378;2023-02-28T05:38:42;35.58;;;33.28;;
63217;SDS011;49314;48.278;16.378;2023-02-28T05:41:08;37.47;;;34.97;;
63217;SDS011;49314;48.278;16.378;2023-02-28T05:43:34;36.80;;;34.35;;
63217;SDS011;49314;48.278;16.378;2023-02-28T05:46:01;35.67;;;33.38;;
63217;SDS011;49314;48.278;16.378;2023-02-28T05:48:27;35.33;;;33.03;;
63217;SDS011;49314;48.278;16.378;2023-02-28T05:50:52;35.83;;;33.40;;
63217;SDS011;49314;48.278;16.378;2023-02-28T05:53:17;38.83;;;36.25;;
63217;SDS011;49314;48.278;16.378;2023-02-28T05:55:42;37.38;;;34.78;;
63217;SDS011;49314;48.278;16.378;2023-02-28T05:58:07;37.85;;;35.28;;
63217;SDS011;49314;48.278;16.378;2023-02-28T06:00:33;37.85;;;35.15;;
63217;SDS011;49314;48.278;16.378;2023-02-28T06:02:58;37.95;;;35.55;;
63217;SDS011;49314;48.278;16.378;2023-02-28T06:05:26;35.67;;;33.25;;
63217;SDS011;49314;48.278;16.378;2023-02-28T06:07:51;37.97;;;35.20;;
63217;SDS011;49314;48.278;16.378;2023-02-28T06:10:17;36.75;;;34.38;;
63217;SDS011;49314;48.278;16.378;2023-02-28T06:12:42;38.03;;;35.38;;
63217;SDS011;49314;48.278;16.378;2023-02-28T06:15:10;37.05;;;34.53;;
63217;SDS011;49314;48.278;16.378;2023-02-28T06:17:36;37.90;;;35.40;;
63217;SDS011;49314;48.278;16.378;2023-02-28T06:20:01;22.13;;;19.85;;
63217;SDS011;49314;48.278;16.378;2023-02-28T06:22:27;34.53;;;31.98;;
63217;SDS011;49314;48.278;16.378;2023-02-28T06:24:52;36.90;;;34.13;;
63217;SDS011;49314;48.278;16.378;2023-02-28T06:27:17;37.13;;;34.60;;
63217;SDS011;49314;48.278;16.378;2023-02-28T06:29:44;35.40;;;33.20;;
63217;SDS011;49314;48.278;16.378;2023-02-28T06:32:09;35.40;;;33.08;;
63217;SDS011;49314;48.278;16.378;2023-02-28T06:34:34;36.92;;;34.20;;
63217;SDS011;49314;48.278;16.378;2023-02-28T06:37:00;37.13;;;34.63;;
63217;SDS011;49314;48.278;16.378;2023-02-28T06:39:27;35.13;;;32.65;;
63217;SDS011;49314;48.278;16.378;2023-02-28T06:41:52;35.35;;;32.88;;
63217;SDS011;49314;48.278;16.378;2023-02-28T06:44:18;36.05;;;33.35;;
63217;SDS011;49314;48.278;16.378;2023-02-28T06:46:44;36.30;;;33.40;;
63217;SDS011;49314;48.278;16.378;2023-02-28T06:49:10;34.63;;;31.90;;
63217;SDS011;49314;48.278;16.378;2023-02-28T06:51:36;35.65;;;33.15;;
63217;SDS011;49314;48.278;16.378;2023-02-28T06:54:02;34.55;;;32.20;;
63217;SDS011;49314;48.278;16.378;2023-02-28T06:56:27;36.47;;;34.13;;
63217;SDS011;49314;48.278;16.378;2023-02-28T06:58:52;37.63;;;35.08;;
63217;SDS011;49314;48.278;16.378;2023-02-28T07:01:18;34.55;;;32.10;;
63217;SDS011;49314;48.278;16.378;2023-02-28T07:03:44;35.65;;;33.22;;
63217;SDS011;49314;48.278;16.378;2023-02-28T07:06:09;35.13;;;32.67;;
63217;SDS011;49314;48.278;16.378;2023-02-28T07:08:34;37.70;;;35.17;;
63217;SDS011;49314;48.278;16.378;2023-02-28T07:11:00;37.33;;;34.72;;
63217;SDS011;49314;48.278;16.378;2023-02-28T07:13:25;34.03;;;31.73;;
63217;SDS011;49314;48.278;16.378;2023-02-28T07:16:09;31.58;;;29.02;;
63217;SDS011;49314;48.278;16.378;2023-02-28T07:18:35;37.13;;;34.42;;
63217;SDS011;49314;48.278;16.378;2023-02-28T07:21:07;29.15;;;26.73;;
63217;SDS011;49314;48.278;16.378;2023-02-28T07:23:33;27.15;;;24.77;;
63217;SDS011;49314;48.278;16.378;2023-02-28T07:25:58;35.92;;;33.53;;
63217;SDS011;49314;48.278;16.378;2023-02-28T07:28:24;38.55;;;35.72;;
63217;SDS011;49314;48.278;16.378;2023-02-28T07:30:49;30.45;;;28.00;;
63217;SDS011;49314;48.278;16.378;2023-02-28T07:33:14;36.10;;;33.38;;
63217;SDS011;49314;48.278;16.378;2023-02-28T07:35:40;37.53;;;34.75;;
63217;SDS011;49314;48.278;16.378;2023-02-28T07:38:05;36.80;;;34.30;;
63217;SDS011;49314;48.278;16.378;2023-02-28T07:40:32;24.05;;;21.52;;
63217;SDS011;49314;48.278;16.378;2023-02-28T07:42:58;37.22;;;34.67;;
63217;SDS011;49314;48.278;16.378;2023-02-28T07:45:24;27.50;;;25.20;;
63217;SDS011;49314;48.278;16.378;2023-02-28T07:47:49;36.20;;;33.65;;
63217;SDS011;49314;48.278;16.378;2023-02-28T07:50:14;33.15;;;30.45;;
63217;SDS011;49314;48.278;16.378;2023-02-28T07:52:40;33.72;;;31.40;;
63217;SDS011;49314;48.278;16.378;2023-02-28T07:55:06;37.47;;;34.63;;
63217;SDS011;49314;48.278;16.378;2023-02-28T07:57:32;23.30;;;21.33;;
63217;SDS011;49314;48.278;16.378;2023-02-28T07:59:57;27.77;;;25.50;;
63217;SDS011;49314;48.278;16.378;2023-02-28T08:02:22;22.95;;;20.73;;
63217;SDS011;49314;48.278;16.378;2023-02-28T08:04:47;36.13;;;33.67;;
63217;SDS011;49314;48.278;16.378;2023-02-28T08:07:13;32.30;;;29.65;;
63217;SDS011;49314;48.278;16.378;2023-02-28T08:09:39;31.42;;;29.05;;
63217;SDS011;49314;48.278;16.378;2023-02-28T08:12:04;24.55;;;22.38;;
63217;SDS011;49314;48.278;16.378;2023-02-28T08:14:29;33.03;;;30.63;;
63217;SDS011;49314;48.278;16.378;2023-02-28T08:16:55;32.78;;;30.35;;
63217;SDS011;49314;48.278;16.378;2023-02-28T08:19:20;28.27;;;26.05;;
63217;SDS011;49314;48.278;16.378;2023-02-28T08:21:45;23.23;;;21.13;;
63217;SDS011;49314;48.278;16.378;2023-02-28T08:24:10;26.85;;;24.63;;
63217;SDS011;49314;48.278;16.378;2023-02-28T08:26:35;26.55;;;24.55;;
63217;SDS011;49314;48.278;16.378;2023-02-28T08:29:01;23.55;;;20.83;;
63217;SDS011;49314;48.278;16.378;2023-02-28T08:31:26;21.70;;;19.80;;
63217;SDS011;49314;48.278;16.378;2023-02-28T08:33:51;23.98;;;21.77;;
63217;SDS011;49314;48.278;16.378;2023-02-28T08:36:18;23.10;;;21.02;;
63217;SDS011;49314;48.278;16.378;2023-02-28T08:38:43;22.15;;;20.25;;
63217;SDS011;49314;48.278;16.378;2023-02-28T08:41:10;19.60;;;17.52;;
63217;SDS011;49314;48.278;16.378;2023-02-28T08:43:36;23.25;;;21.35;;
63217;SDS011;49314;48.278;16.378;2023-02-28T08:46:01;23.67;;;21.58;;
63217;SDS011;49314;48.278;16.378;2023-02-28T08:48:26;20.70;;;18.92;;
63217;SDS011;49314;48.278;16.378;2023-02-28T08:50:56;19.60;;;17.70;;
63217;SDS011;49314;48.278;16.378;2023-02-28T08:53:21;20.98;;;19.17;;
63217;SDS011;49314;48.278;16.378;2023-02-28T08:55:46;18.48;;;15.95;;
63217;SDS011;49314;48.278;16.378;2023-02-28T08:58:11;21.13;;;19.10;;
63217;SDS011;49314;48.278;16.378;2023-02-28T09:00:37;22.55;;;20.55;;
63217;SDS011;49314;48.278;16.378;2023-02-28T09:03:02;21.55;;;19.40;;
63217;SDS011;49314;48.278;16.378;2023-02-28T09:05:28;19.50;;;18.00;;
63217;SDS011;49314;48.278;16.378;2023-02-28T09:07:54;19.50;;;17.65;;
63217;SDS011;49314;48.278;16.378;2023-02-28T09:10:20;20.60;;;18.67;;
63217;SDS011;49314;48.278;16.378;2023-02-28T09:12:47;20.50;;;18.40;;
63217;SDS011;49314;48.278;16.378;2023-02-28T09:29:39;25.88;;;23.80;;
63217;SDS011;49314;48.278;16.378;2023-02-28T09:32:04;33.67;;;31.15;;
63217;SDS011;49314;48.278;16.378;2023-02-28T09:34:30;29.33;;;27.17;;
63217;SDS011;49314;48.278;16.378;2023-02-28T09:36:56;28.23;;;25.98;;
63217;SDS011;49314;48.278;16.378;2023-02-28T09:39:21;29.45;;;27.33;;
63217;SDS011;49314;48.278;16.378;2023-02-28T09:41:48;26.17;;;23.92;;
63217;SDS011;49314;48.278;16.378;2023-02-28T09:44:35;25.95;;;23.98;;
63217;SDS011;49314;48.278;16.378;2023-02-28T09:47:05;21.95;;;20.13;;
63217;SDS011;49314;48.278;16.378;2023-02-28T09:49:40;22.73;;;20.90;;
63217;SDS011;49314;48.278;16.378;2023-02-28T09:52:09;23.35;;;21.45;;
63217;SDS011;49314;48.278;16.378;2023-02-28T09:54:35;23.90;;;21.90;;
63217;SDS011;49314;48.278;16.378;2023-02-28T09:57:04;21.77;;;20.00;;
63217;SDS011;49314;48.278;16.378;2023-02-28T10:04:56;34.50;;;32.17;;
63217;SDS011;49314;48.278;16.378;2023-02-28T10:09:49;33.00;;;30.63;;
63217;SDS011;49314;48.278;16.378;2023-02-28T10:12:15;30.08;;;27.40;;
63217;SDS011;49314;48.278;16.378;2023-02-28T10:14:41;24.13;;;21.95;;
63217;SDS011;49314;48.278;16.378;2023-02-28T10:17:11;25.65;;;23.85;;
63217;SDS011;49314;48.278;16.378;2023-02-28T10:24:32;25.07;;;23.03;;
63217;SDS011;49314;48.278;16.378;2023-02-28T10:27:00;22.58;;;20.77;;
63217;SDS011;49314;48.278;16.378;2023-02-28T10:29:26;20.73;;;18.92;;
63217;SDS011;49314;48.278;16.378;2023-02-28T10:31:52;21.35;;;19.50;;
63217;SDS011;49314;48.278;16.378;2023-02-28T10:34:17;19.87;;;18.17;;
63217;SDS011;49314;48.278;16.378;2023-02-28T10:36:42;21.67;;;19.92;;
63217;SDS011;49314;48.278;16.378;2023-02-28T10:41:54;22.58;;;20.98;;
63217;SDS011;49314;48.278;16.378;2023-02-28T10:44:21;23.65;;;21.92;;
63217;SDS011;49314;48.278;16.378;2023-02-28T10:46:46;23.75;;;21.85;;
63217;SDS011;49314;48.278;16.378;2023-02-28T10:49:22;23.23;;;21.25;;
63217;SDS011;49314;48.278;16.378;2023-02-28T10:51:52;24.10;;;22.23;;
63217;SDS011;49314;48.278;16.378;2023-02-28T10:54:19;20.80;;;19.05;;
63217;SDS011;49314;48.278;16.378;2023-02-28T10:56:44;21.70;;;20.05;;
63217;SDS011;49314;48.278;16.378;2023-02-28T10:59:28;21.15;;;19.45;;
63217;SDS011;49314;48.278;16.378;2023-02-28T11:01:54;19.20;;;17.52;;
63217;SDS011;49314;48.278;16.378;2023-02-28T11:06:47;18.98;;;17.30;;
63217;SDS011;49314;48.278;16.378;2023-02-28T11:09:27;19.77;;;18.08;;
63217;SDS011;49314;48.278;16.378;2023-02-28T11:11:54;20.15;;;18.65;;
63217;SDS011;49314;48.278;16.378;2023-02-28T11:14:26;18.65;;;17.00;;
63217;SDS011;49314;48.278;16.378;2023-02-28T11:16:52;17.42;;;15.82;;
63217;SDS011;49314;48.278;16.378;2023-02-28T11:19:23;18.27;;;16.63;;
63217;SDS011;49314;48.278;16.378;2023-02-28T11:22:11;16.67;;;15.18;;
63217;SDS011;49314;48.278;16.378;2023-02-28T11:24:42;18.17;;;16.70;;
63217;SDS011;49314;48.278;16.378;2023-02-28T11:32:56;17.92;;;16.48;;
63217;SDS011;49314;48.278;16.378;2023-02-28T11:35:26;18.00;;;16.30;;
63217;SDS011;49314;48.278;16.378;2023-02-28T11:40:39;18.03;;;16.43;;
63217;SDS011;49314;48.278;16.378;2023-02-28T11:50:47;20.53;;;18.97;;
63217;SDS011;49314;48.278;16.378;2023-02-28T11:53:16;21.92;;;20.25;;
63217;SDS011;49314;48.278;16.378;2023-02-28T11:55:45;22.40;;;20.75;;
63217;SDS011;49314;48.278;16.378;2023-02-28T12:03:44;20.38;;;18.90;;
63217;SDS011;49314;48.278;16.378;2023-02-28T12:08:47;27.35;;;25.42;;
63217;SDS011;49314;48.278;16.378;2023-02-28T12:11:19;23.20;;;21.10;;
63217;SDS011;49314;48.278;16.378;2023-02-28T12:16:26;31.17;;;29.27;;
63217;SDS011;49314;48.278;16.378;2023-02-28T12:23:57;30.70;;;28.58;;
63217;SDS011;49314;48.278;16.378;2023-02-28T12:29:02;27.92;;;25.92;;
63217;SDS011;49314;48.278;16.378;2023-02-28T12:31:33;36.80;;;34.55;;
63217;SDS011;49314;48.278;16.378;2023-02-28T12:34:01;34.83;;;32.67;;
63217;SDS011;49314;48.278;16.378;2023-02-28T12:36:28;21.35;;;19.75;;
63217;SDS011;49314;48.278;16.378;2023-02-28T12:44:07;28.40;;;26.58;;
63217;SDS011;49314;48.278;16.378;2023-02-28T12:46:35;33.78;;;31.80;;
63217;SDS011;49314;48.278;16.378;2023-02-28T12:49:05;29.83;;;27.80;;
63217;SDS011;49314;48.278;16.378;2023-02-28T12:51:31;27.30;;;25.35;;
63217;SDS011;49314;48.278;16.378;2023-02-28T12:56:48;29.55;;;27.67;;
63217;SDS011;49314;48.278;16.378;2023-02-28T12:59:31;35.88;;;33.58;;
63217;SDS011;49314;48.278;16.378;2023-02-28T13:10:07;32.67;;;30.50;;
63217;SDS011;49314;48.278;16.378;2023-02-28T13:12:33;25.08;;;23.35;;
63217;SDS011;49314;48.278;16.378;2023-02-28T13:15:18;27.75;;;25.83;;
63217;SDS011;49314;48.278;16.378;2023-02-28T13:17:56;31.05;;;28.80;;
63217;SDS011;49314;48.278;16.378;2023-02-28T13:22:52;30.45;;;28.50;;
63217;SDS011;49314;48.278;16.378;2023-02-28T13:27:45;36.97;;;34.88;;
63217;SDS011;49314;48.278;16.378;2023-02-28T13:35:43;32.30;;;30.13;;
63217;SDS011;49314;48.278;16.378;2023-02-28T13:38:12;32.80;;;30.90;;
63217;SDS011;49314;48.278;16.378;2023-02-28T13:40:38;26.42;;;24.70;;
63217;SDS011;49314;48.278;16.378;2023-02-28T13:43:06;36.63;;;34.50;;
63217;SDS011;49314;48.278;16.378;2023-02-28T13:45:32;35.08;;;33.15;;
63217;SDS011;49314;48.278;16.378;2023-02-28T13:48:04;37.47;;;35.15;;
63217;SDS011;49314;48.278;16.378;2023-02-28T13:50:36;21.25;;;19.52;;
63217;SDS011;49314;48.278;16.378;2023-02-28T13:56:18;34.22;;;32.22;;
63217;SDS011;49314;48.278;16.378;2023-02-28T14:05:34;27.67;;;25.85;;
63217;SDS011;49314;48.278;16.378;2023-02-28T14:08:04;18.92;;;17.52;;
63217;SDS011;49314;48.278;16.378;2023-02-28T14:10:31;19.90;;;18.60;;
63217;SDS011;49314;48.278;16.378;2023-02-28T14:15:39;24.77;;;22.60;;
63217;SDS011;49314;48.278;16.378;2023-02-28T14:20:52;22.00;;;20.52;;
63217;SDS011;49314;48.278;16.378;2023-02-28T14:23:24;21.67;;;20.08;;
63217;SDS011;49314;48.278;16.378;2023-02-28T14:28:25;20.47;;;18.97;;
63217;SDS011;49314;48.278;16.378;2023-02-28T14:30:57;23.70;;;22.17;;
63217;SDS011;49314;48.278;16.378;2023-02-28T14:36:14;23.17;;;21.58;;
63217;SDS011;49314;48.278;16.378;2023-02-28T14:38:48;23.08;;;21.45;;
63217;SDS011;49314;48.278;16.378;2023-02-28T14:41:37;20.58;;;18.98;;
63217;SDS011;49314;48.278;16.378;2023-02-28T14:44:02;20.60;;;19.17;;
63217;SDS011;49314;48.278;16.378;2023-02-28T14:46:37;22.67;;;21.00;;
63217;SDS011;49314;48.278;16.378;2023-02-28T14:49:06;21.55;;;20.00;;
63217;SDS011;49314;48.278;16.378;2023-02-28T14:51:34;26.45;;;24.85;;
63217;SDS011;49314;48.278;16.378;2023-02-28T14:54:00;21.35;;;19.73;;
63217;SDS011;49314;48.278;16.378;2023-02-28T14:56:36;22.60;;;21.17;;
63217;SDS011;49314;48.278;16.378;2023-02-28T14:59:02;35.47;;;33.50;;
63217;SDS011;49314;48.278;16.378;2023-02-28T15:01:28;28.13;;;26.40;;
63217;SDS011;49314;48.278;16.378;2023-02-28T15:04:12;24.83;;;22.52;;
63217;SDS011;49314;48.278;16.378;2023-02-28T15:06:40;23.58;;;21.90;;
63217;SDS011;49314;48.278;16.378;2023-02-28T15:09:11;22.45;;;20.80;;
63217;SDS011;49314;48.278;16.378;2023-02-28T15:11:36;20.42;;;18.98;;
63217;SDS011;49314;48.278;16.378;2023-02-28T15:14:02;31.30;;;29.65;;
63217;SDS011;49314;48.278;16.378;2023-02-28T15:16:29;36.50;;;34.33;;
63217;SDS011;49314;48.278;16.378;2023-02-28T15:19:00;24.45;;;22.95;;
63217;SDS011;49314;48.278;16.378;2023-02-28T15:23:55;21.97;;;20.47;;
63217;SDS011;49314;48.278;16.378;2023-02-28T15:26:22;36.58;;;34.63;;
63217;SDS011;49314;48.278;16.378;2023-02-28T15:28:50;34.30;;;32.60;;
63217;SDS011;49314;48.278;16.378;2023-02-28T15:31:20;34.47;;;32.53;;
63217;SDS011;49314;48.278;16.378;2023-02-28T15:33:53;31.90;;;30.13;;
63217;SDS011;49314;48.278;16.378;2023-02-28T15:36:19;19.83;;;18.42;;
63217;SDS011;49314;48.278;16.378;2023-02-28T15:38:50;34.55;;;32.78;;
63217;SDS011;49314;48.278;16.378;2023-02-28T15:41:22;31.67;;;30.08;;
63217;SDS011;49314;48.278;16.378;2023-02-28T15:46:13;34.22;;;32.28;;
63217;SDS011;49314;48.278;16.378;2023-02-28T15:48:44;26.67;;;24.98;;
63217;SDS011;49314;48.278;16.378;2023-02-28T15:53:51;33.47;;;31.50;;
63217;SDS011;49314;48.278;16.378;2023-02-28T15:56:53;24.58;;;22.85;;
63217;SDS011;49314;48.278;16.378;2023-02-28T15:59:15;33.90;;;31.92;;
63217;SDS011;49314;48.278;16.378;2023-02-28T16:01:41;35.78;;;33.67;;
63217;SDS011;49314;48.278;16.378;2023-02-28T16:04:12;36.22;;;34.20;;
63217;SDS011;49314;48.278;16.378;2023-02-28T16:09:11;36.90;;;34.83;;
63217;SDS011;49314;48.278;16.378;2023-02-28T16:11:40;36.10;;;34.10;;
63217;SDS011;49314;48.278;16.378;2023-02-28T16:14:08;36.55;;;34.65;;
63217;SDS011;49314;48.278;16.378;2023-02-28T16:16:33;35.50;;;33.17;;
63217;SDS011;49314;48.278;16.378;2023-02-28T16:18:59;35.25;;;33.35;;
63217;SDS011;49314;48.278;16.378;2023-02-28T16:21:25;35.25;;;33.45;;
63217;SDS011;49314;48.278;16.378;2023-02-28T16:23:50;31.77;;;29.88;;
63217;SDS011;49314;48.278;16.378;2023-02-28T16:26:19;34.92;;;32.92;;
63217;SDS011;49314;48.278;16.378;2023-02-28T16:28:46;36.53;;;34.53;;
63217;SDS011;49314;48.278;16.378;2023-02-28T16:31:11;36.05;;;33.88;;
63217;SDS011;49314;48.278;16.378;2023-02-28T16:33:41;34.58;;;32.67;;
63217;SDS011;49314;48.278;16.378;2023-02-28T16:36:09;37.63;;;35.38;;
63217;SDS011;49314;48.278;16.378;2023-02-28T16:38:34;36.17;;;34.08;;
63217;SDS011;49314;48.278;16.378;2023-02-28T16:40:59;37.45;;;35.17;;
63217;SDS011;49314;48.278;16.378;2023-02-28T16:43:25;34.63;;;32.70;;
63217;SDS011;49314;48.278;16.378;2023-02-28T16:45:57;38.72;;;36.33;;
63217;SDS011;49314;48.278;16.378;2023-02-28T16:48:23;36.90;;;34.42;;
63217;SDS011;49314;48.278;16.378;2023-02-28T16:50:48;37.10;;;34.95;;